createdAt,value
2018-09-13T00:13:19.434Z,68.6
2018-09-13T00:28:31.384Z,70
2018-09-13T00:43:56.350Z,71.2
2018-09-13T00:59:11.411Z,72.1
2018-09-13T01:14:28.324Z,73.2
2018-09-13T01:29:31.623Z,73.2
2018-09-13T01:45:01.875Z,73.7
2018-09-13T02:00:19.415Z,73.5
2018-09-13T02:15:36.036Z,73
2018-09-13T02:30:53.501Z,73.2
2018-09-13T02:46:02.027Z,73.7
2018-09-13T03:01:26.611Z,74.8
2018-09-13T03:16:43.960Z,74.7
2018-09-13T03:31:59.505Z,73.7
2018-09-13T03:47:16.343Z,73.4
2018-09-13T04:02:31.770Z,73.7
2018-09-13T04:17:49.509Z,74
2018-09-13T04:33:06.081Z,73.2
2018-09-13T04:48:22.399Z,73.5
2018-09-13T05:03:30.856Z,72.9
2018-09-13T05:18:56.598Z,71.8
2018-09-13T05:34:12.297Z,71.8
2018-09-13T05:49:29.509Z,66.8
2018-09-13T06:04:46.428Z,66.9
2018-09-13T06:20:02.648Z,65.4
2018-09-13T06:35:20.708Z,64
2018-09-13T06:50:37.497Z,64.9
2018-09-13T07:05:54.841Z,65.6
2018-09-13T07:21:03.758Z,66.4
2018-09-13T07:36:28.898Z,64.4
2018-09-13T07:51:47.228Z,64
2018-09-13T08:07:04.057Z,63.4
2018-09-13T08:22:22.130Z,62.2
2018-09-13T08:37:36.615Z,62.5
2018-09-13T08:52:57.202Z,61.4
2018-09-13T09:08:14.978Z,61.2
2018-09-13T09:23:33.349Z,59.8
2018-09-13T09:38:40.108Z,59.2
2018-09-13T09:54:09.383Z,58.1
2018-09-13T10:09:27.231Z,58.5
2018-09-13T10:24:45.045Z,59.1
2018-09-13T10:40:03.491Z,58
2018-09-13T10:55:15.496Z,58.2
2018-09-13T11:10:39.837Z,58.8
2018-09-13T11:25:58.465Z,57.5
2018-09-13T11:41:16.273Z,56.2
2018-09-13T11:56:19.847Z,55.8
2018-09-13T12:11:50.975Z,60.1
2018-09-13T12:27:11.655Z,64.2
2018-09-13T12:42:28.815Z,65.8
2018-09-13T12:57:46.498Z,69.8
2018-09-13T13:12:54.499Z,71.2
2018-09-13T13:28:22.248Z,72.9
2018-09-13T13:43:39.850Z,73
2018-09-13T13:58:59.385Z,74.2
2018-09-13T14:14:15.755Z,71.2
2018-09-13T14:29:29.328Z,70.1
2018-09-13T14:44:51.709Z,68.1
2018-09-13T15:00:09.692Z,67.9
2018-09-13T15:15:27.489Z,69.8
2018-09-13T15:30:34.104Z,70.5
2018-09-13T15:46:04.142Z,71.2
2018-09-13T16:01:21.456Z,71.6
2018-09-13T16:16:38.811Z,72.3
2018-09-13T16:31:56.752Z,72.2
2018-09-13T16:47:07.898Z,72.6
2018-09-13T17:02:31.936Z,73.3
2018-09-13T17:17:52.225Z,73.3
2018-09-13T17:33:07.609Z,73.5
2018-09-13T17:48:25.026Z,75.6
2018-09-13T18:03:41.805Z,76.2
2018-09-13T18:19:00.138Z,77.3
2018-09-13T18:34:16.935Z,76.8
2018-09-13T18:49:33.885Z,77.5
2018-09-13T19:04:43.502Z,78
2018-09-13T19:20:07.647Z,79.8
2018-09-13T19:35:24.668Z,79
2018-09-13T19:50:41.437Z,80.8
2018-09-13T20:05:59.328Z,82.5
2018-09-13T20:21:13.448Z,82.8
2018-09-13T20:36:31.344Z,82.7
2018-09-13T20:51:47.951Z,82.9
2018-09-13T21:07:04.569Z,83.8
2018-09-13T21:22:12.765Z,83.7
2018-09-13T21:37:37.646Z,86
2018-09-13T21:52:54.113Z,83.3
2018-09-13T22:08:11.014Z,85.8
2018-09-13T22:23:27.501Z,87
2018-09-13T22:38:41.957Z,88.2
2018-09-13T22:54:00.037Z,90.2
2018-09-13T23:09:16.114Z,90.6
2018-09-13T23:24:32.409Z,91.3
2018-09-13T23:39:40.877Z,91.4
2018-09-13T23:55:04.899Z,91.5
